createdAt,value
2019-03-20T00:00:05.985Z,5.12
2019-03-20T00:01:07.823Z,5.06
2019-03-20T00:02:05.521Z,5.00
2019-03-20T00:03:05.630Z,5.00
2019-03-20T00:04:05.587Z,5.00
2019-03-20T00:05:05.275Z,4.94
2019-03-20T00:06:05.523Z,4.94
2019-03-20T00:07:05.693Z,4.88
2019-03-20T00:08:05.586Z,4.88
2019-03-20T00:09:05.218Z,4.81
2019-03-20T00:10:05.191Z,4.81
2019-03-20T00:11:05.286Z,4.81
2019-03-20T00:12:05.534Z,4.81
2019-03-20T00:13:05.523Z,4.81
2019-03-20T00:14:05.108Z,4.81
2019-03-20T00:15:05.115Z,4.75
2019-03-20T00:16:05.424Z,4.75
2019-03-20T00:17:05.133Z,4.69
2019-03-20T00:18:05.352Z,4.69
2019-03-20T00:19:07.989Z,4.62
2019-03-20T00:20:05.508Z,4.56
2019-03-20T00:21:05.598Z,4.50
2019-03-20T00:22:05.189Z,4.50
2019-03-20T00:23:05.294Z,4.50
2019-03-20T00:24:05.370Z,4.50
2019-03-20T00:25:05.388Z,4.44
2019-03-20T00:26:05.355Z,4.44
2019-03-20T00:27:05.458Z,4.44
2019-03-20T00:28:05.584Z,4.44
2019-03-20T00:29:05.931Z,4.31
2019-03-20T00:30:05.295Z,4.31
2019-03-20T00:31:05.433Z,4.31
2019-03-20T00:32:05.675Z,4.19
2019-03-20T00:33:05.224Z,4.12
2019-03-20T00:34:05.184Z,4.06
2019-03-20T00:35:05.783Z,4.12
2019-03-20T00:36:05.833Z,4.06
2019-03-20T00:37:05.205Z,4.12
2019-03-20T00:38:05.679Z,4.12
2019-03-20T00:39:05.768Z,4.12
2019-03-20T00:40:05.252Z,4.12
2019-03-20T00:41:05.443Z,4.12
2019-03-20T00:42:05.820Z,4.06
2019-03-20T00:43:05.344Z,4.06
2019-03-20T00:44:05.518Z,4.00
2019-03-20T00:45:05.610Z,3.94
2019-03-20T00:46:05.510Z,3.88
2019-03-20T00:47:05.923Z,3.88
2019-03-20T00:48:05.108Z,3.88
2019-03-20T00:49:05.447Z,3.81
2019-03-20T00:50:05.529Z,3.88
2019-03-20T00:51:05.748Z,3.88
2019-03-20T00:52:05.445Z,3.88
2019-03-20T00:53:05.362Z,3.88
2019-03-20T00:54:06.003Z,3.81
2019-03-20T00:55:06.014Z,3.81
2019-03-20T00:56:05.121Z,3.81
2019-03-20T00:57:05.348Z,3.88
2019-03-20T00:58:05.120Z,3.81
2019-03-20T00:59:05.191Z,3.75
2019-03-20T01:00:05.506Z,3.75
2019-03-20T01:01:05.202Z,3.75
2019-03-20T01:02:05.436Z,3.69
2019-03-20T01:03:05.292Z,3.69
2019-03-20T01:04:05.266Z,3.75
2019-03-20T01:05:12.379Z,3.75
2019-03-20T01:06:05.437Z,3.75
2019-03-20T01:07:05.839Z,3.75
2019-03-20T01:08:05.515Z,3.81
2019-03-20T01:09:05.190Z,3.81
2019-03-20T01:10:05.432Z,3.81
2019-03-20T01:11:05.531Z,3.81
2019-03-20T01:12:05.595Z,3.81
2019-03-20T01:13:05.686Z,3.81
2019-03-20T01:14:05.591Z,3.81
2019-03-20T01:15:06.008Z,3.69
2019-03-20T01:16:05.359Z,3.69
2019-03-20T01:17:05.617Z,3.62
2019-03-20T01:18:05.758Z,3.62
2019-03-20T01:19:05.766Z,3.62
2019-03-20T01:20:05.112Z,3.62
2019-03-20T01:21:05.776Z,3.56
2019-03-20T01:22:05.843Z,3.56
2019-03-20T01:23:05.040Z,3.56
2019-03-20T01:24:05.670Z,3.56
2019-03-20T01:25:05.285Z,3.62
2019-03-20T01:26:05.270Z,3.62
2019-03-20T01:27:05.779Z,3.69
2019-03-20T01:28:05.230Z,3.69
2019-03-20T01:29:05.385Z,3.69
2019-03-20T01:30:05.919Z,3.75
2019-03-20T01:31:05.925Z,3.75
2019-03-20T01:32:05.353Z,3.75
2019-03-20T01:33:05.361Z,3.69
2019-03-20T01:34:05.838Z,3.62
2019-03-20T01:35:05.996Z,3.62
2019-03-20T01:36:05.260Z,3.62
2019-03-20T01:37:05.550Z,3.62
2019-03-20T01:38:05.920Z,3.62
2019-03-20T01:39:06.023Z,3.62
2019-03-20T01:40:05.029Z,3.50
2019-03-20T01:41:05.661Z,3.44
2019-03-20T01:42:05.835Z,3.38
2019-03-20T01:43:05.429Z,3.38
2019-03-20T01:44:05.845Z,3.38
2019-03-20T01:45:05.061Z,3.38
2019-03-20T01:46:06.013Z,3.38
2019-03-20T01:47:06.873Z,3.38
2019-03-20T01:48:05.433Z,3.38
2019-03-20T01:49:05.533Z,3.31
2019-03-20T01:50:05.592Z,3.31
2019-03-20T01:51:05.748Z,3.31
2019-03-20T01:52:05.133Z,3.25
2019-03-20T01:53:05.111Z,3.25
2019-03-20T01:54:05.348Z,3.19
2019-03-20T01:55:05.368Z,3.12
2019-03-20T01:56:05.429Z,3.19
2019-03-20T01:57:05.538Z,3.19
2019-03-20T01:58:05.588Z,3.19
2019-03-20T01:59:05.287Z,3.19
2019-03-20T02:00:05.369Z,3.25
2019-03-20T02:01:05.635Z,3.19
2019-03-20T02:02:06.102Z,3.19
2019-03-20T02:03:06.007Z,3.12
2019-03-20T02:04:05.435Z,3.06
2019-03-20T02:05:05.624Z,3.06
2019-03-20T02:06:05.763Z,3.00
2019-03-20T02:07:05.685Z,3.00
2019-03-20T02:08:05.200Z,3.00
2019-03-20T02:09:05.202Z,3.00
2019-03-20T02:10:05.123Z,2.94
2019-03-20T02:11:05.684Z,2.94
2019-03-20T02:12:05.202Z,2.94
2019-03-20T02:13:05.204Z,3.00
2019-03-20T02:14:05.199Z,2.88
2019-03-20T02:15:05.780Z,2.75
2019-03-20T02:16:05.115Z,2.62
2019-03-20T02:17:05.461Z,2.56
2019-03-20T02:18:05.365Z,2.44
2019-03-20T02:19:05.518Z,2.44
2019-03-20T02:20:05.681Z,2.38
2019-03-20T02:21:05.056Z,2.50
2019-03-20T02:22:05.600Z,2.81
2019-03-20T02:23:05.188Z,3.12
2019-03-20T02:24:05.509Z,3.12
2019-03-20T02:25:05.605Z,3.19
2019-03-20T02:26:05.762Z,3.19
2019-03-20T02:27:05.926Z,3.12
2019-03-20T02:28:05.497Z,3.12
2019-03-20T02:29:05.125Z,3.19
2019-03-20T02:30:05.367Z,3.19
2019-03-20T02:31:05.523Z,3.12
2019-03-20T02:32:05.704Z,3.06
2019-03-20T02:33:05.775Z,3.06
2019-03-20T02:34:05.268Z,3.06
2019-03-20T02:35:05.373Z,3.00
2019-03-20T02:36:05.984Z,3.00
2019-03-20T02:37:05.213Z,2.88
2019-03-20T02:38:05.367Z,2.88
2019-03-20T02:39:05.526Z,2.81
2019-03-20T02:40:05.601Z,2.81
2019-03-20T02:41:05.860Z,2.81
2019-03-20T02:42:05.218Z,2.81
2019-03-20T02:43:10.296Z,2.75
2019-03-20T02:44:05.776Z,2.75
2019-03-20T02:45:05.766Z,2.69
2019-03-20T02:46:05.531Z,2.75
2019-03-20T02:47:05.914Z,2.75
2019-03-20T02:48:05.118Z,2.75
2019-03-20T02:49:05.290Z,2.75
2019-03-20T02:50:05.680Z,2.75
2019-03-20T02:51:05.751Z,2.69
2019-03-20T02:52:06.008Z,2.69
2019-03-20T02:53:05.368Z,2.62
2019-03-20T02:54:05.993Z,2.62
2019-03-20T02:55:05.130Z,2.62
2019-03-20T02:56:05.198Z,2.62
2019-03-20T02:57:05.784Z,2.62
2019-03-20T02:58:05.926Z,2.62
2019-03-20T02:59:06.102Z,2.62
2019-03-20T03:00:06.102Z,2.62
2019-03-20T03:01:06.883Z,2.62
2019-03-20T03:02:05.997Z,2.56
2019-03-20T03:03:06.038Z,2.50
2019-03-20T03:04:06.081Z,2.50
2019-03-20T03:05:05.357Z,2.50
2019-03-20T03:06:06.950Z,2.50
2019-03-20T03:07:05.110Z,2.50
2019-03-20T03:08:05.386Z,2.50
2019-03-20T03:09:05.279Z,2.44
2019-03-20T03:10:05.956Z,2.44
2019-03-20T03:11:05.138Z,2.44
2019-03-20T03:12:05.207Z,2.44
2019-03-20T03:13:05.666Z,2.50
2019-03-20T03:14:06.004Z,2.56
2019-03-20T03:15:05.202Z,2.50
2019-03-20T03:16:05.676Z,2.44
2019-03-20T03:17:05.939Z,2.44
2019-03-20T03:18:05.933Z,2.44
2019-03-20T03:19:05.448Z,2.44
2019-03-20T03:20:05.621Z,2.38
2019-03-20T03:21:05.600Z,2.38
2019-03-20T03:22:05.696Z,2.31
2019-03-20T03:23:05.698Z,2.25
2019-03-20T03:24:05.121Z,2.25
2019-03-20T03:25:05.724Z,2.25
2019-03-20T03:26:05.617Z,2.19
2019-03-20T03:27:05.995Z,2.19
2019-03-20T03:28:05.438Z,2.19
2019-03-20T03:29:05.446Z,2.25
2019-03-20T03:30:05.784Z,2.19
2019-03-20T03:31:05.123Z,2.12
2019-03-20T03:32:05.249Z,2.12
2019-03-20T03:33:05.437Z,2.12
2019-03-20T03:34:05.393Z,2.06
2019-03-20T03:35:05.703Z,2.00
2019-03-20T03:36:05.298Z,2.06
2019-03-20T03:37:05.027Z,2.06
2019-03-20T03:38:05.031Z,2.00
2019-03-20T03:39:05.309Z,2.00
2019-03-20T03:40:05.290Z,1.94
2019-03-20T03:41:05.448Z,1.94
2019-03-20T03:42:05.690Z,1.88
2019-03-20T03:43:06.078Z,1.88
2019-03-20T03:44:05.448Z,1.88
2019-03-20T03:45:05.911Z,1.81
2019-03-20T03:46:05.371Z,1.81
2019-03-20T03:47:05.607Z,1.81
2019-03-20T03:48:05.650Z,1.81
2019-03-20T03:49:05.599Z,1.81
2019-03-20T03:50:05.783Z,1.81
2019-03-20T03:51:05.134Z,1.81
2019-03-20T03:52:05.412Z,1.75
2019-03-20T03:53:05.362Z,1.81
2019-03-20T03:54:05.547Z,1.81
2019-03-20T03:55:05.924Z,1.81
2019-03-20T03:56:05.607Z,1.69
2019-03-20T03:57:05.218Z,1.56
2019-03-20T03:58:05.258Z,1.50
2019-03-20T03:59:05.374Z,1.44
2019-03-20T04:00:05.448Z,1.38
2019-03-20T04:01:05.663Z,1.31
2019-03-20T04:02:05.213Z,1.25
2019-03-20T04:03:05.595Z,1.25
2019-03-20T04:04:05.698Z,1.25
2019-03-20T04:05:05.772Z,1.25
2019-03-20T04:06:05.926Z,1.25
2019-03-20T04:07:05.639Z,1.25
2019-03-20T04:08:05.873Z,1.25
2019-03-20T04:09:05.912Z,1.19
2019-03-20T04:10:05.383Z,1.19
2019-03-20T04:11:05.443Z,1.19
2019-03-20T04:12:05.605Z,1.19
2019-03-20T04:13:05.145Z,1.19
2019-03-20T04:14:05.370Z,1.19
2019-03-20T04:15:05.457Z,1.19
2019-03-20T04:16:05.608Z,1.19
2019-03-20T04:17:05.050Z,1.19
2019-03-20T04:18:05.526Z,1.19
2019-03-20T04:19:05.612Z,1.25
2019-03-20T04:20:05.871Z,1.25
2019-03-20T04:21:05.947Z,1.25
2019-03-20T04:22:05.233Z,1.19
2019-03-20T04:23:06.002Z,1.19
2019-03-20T04:24:05.365Z,1.19
2019-03-20T04:25:06.015Z,1.12
2019-03-20T04:26:05.207Z,1.12
2019-03-20T04:27:05.689Z,1.12
2019-03-20T04:28:05.786Z,1.12
2019-03-20T04:29:05.117Z,1.12
2019-03-20T04:30:05.300Z,1.25
2019-03-20T04:31:05.753Z,1.38
2019-03-20T04:32:05.123Z,1.44
2019-03-20T04:33:05.596Z,1.56
2019-03-20T04:34:05.686Z,1.62
2019-03-20T04:35:05.044Z,1.62
2019-03-20T04:36:05.229Z,1.62
2019-03-20T04:37:05.780Z,1.56
2019-03-20T04:38:05.130Z,1.56
2019-03-20T04:39:05.128Z,1.56
2019-03-20T04:40:05.462Z,1.50
2019-03-20T04:41:05.862Z,1.50
2019-03-20T04:42:05.048Z,1.44
2019-03-20T04:43:05.620Z,1.44
2019-03-20T04:44:05.307Z,1.38
2019-03-20T04:45:05.279Z,1.38
2019-03-20T04:46:05.374Z,1.38
2019-03-20T04:47:06.003Z,1.38
2019-03-20T04:48:06.095Z,1.50
2019-03-20T04:49:05.450Z,1.50
2019-03-20T04:50:05.674Z,1.56
2019-03-20T04:51:05.911Z,1.62
2019-03-20T04:52:05.523Z,1.62
2019-03-20T04:53:05.986Z,1.62
2019-03-20T04:54:05.608Z,1.56
2019-03-20T04:55:05.987Z,1.44
2019-03-20T04:56:05.613Z,1.50
2019-03-20T04:57:05.671Z,1.50
2019-03-20T04:58:05.042Z,1.38
2019-03-20T04:59:05.664Z,1.31
2019-03-20T05:00:05.756Z,1.06
2019-03-20T05:01:05.921Z,0.94
2019-03-20T05:02:05.538Z,0.75
2019-03-20T05:03:06.085Z,0.56
2019-03-20T05:04:05.358Z,0.44
2019-03-20T05:05:05.510Z,0.31
2019-03-20T05:06:05.605Z,0.19
2019-03-20T05:07:05.123Z,0.06
2019-03-20T05:08:05.435Z,-0.06
2019-03-20T05:09:05.697Z,-0.12
2019-03-20T05:10:05.847Z,-0.25
2019-03-20T05:11:06.003Z,-0.31
2019-03-20T05:12:05.462Z,-0.38
2019-03-20T05:13:05.610Z,-0.44
2019-03-20T05:14:05.540Z,-0.50
2019-03-20T05:15:06.096Z,-0.56
2019-03-20T05:16:06.029Z,-0.62
2019-03-20T05:17:05.435Z,-0.69
2019-03-20T05:18:05.047Z,-0.75
2019-03-20T05:19:05.558Z,-0.81
2019-03-20T05:20:05.544Z,-0.88
2019-03-20T05:21:06.006Z,-0.88
2019-03-20T05:22:05.226Z,-0.94
2019-03-20T05:23:05.274Z,-1.00
2019-03-20T05:24:05.471Z,-1.00
2019-03-20T05:25:05.989Z,-1.06
2019-03-20T05:26:05.042Z,-1.06
2019-03-20T05:27:05.446Z,-1.06
2019-03-20T05:28:05.931Z,-1.12
2019-03-20T05:29:05.999Z,-1.12
2019-03-20T05:30:05.602Z,-1.06
2019-03-20T05:31:05.763Z,-0.69
2019-03-20T05:32:05.786Z,-0.38
2019-03-20T05:33:05.855Z,-0.25
2019-03-20T05:34:05.690Z,-0.25
2019-03-20T05:35:05.927Z,-0.19
2019-03-20T05:36:05.787Z,-0.31
2019-03-20T05:37:10.098Z,-0.44
2019-03-20T05:38:05.408Z,-0.56
2019-03-20T05:39:05.600Z,-0.50
2019-03-20T05:40:05.375Z,-0.56
2019-03-20T05:41:05.917Z,-0.50
2019-03-20T05:42:06.102Z,-0.31
2019-03-20T05:43:05.215Z,-0.19
2019-03-20T05:44:05.686Z,-0.25
2019-03-20T05:45:05.216Z,0.06
2019-03-20T05:46:05.702Z,0.12
2019-03-20T05:47:05.922Z,0.06
2019-03-20T05:48:06.009Z,0.00
2019-03-20T05:49:05.605Z,0.00
2019-03-20T05:50:05.692Z,0.06
2019-03-20T05:51:05.843Z,0.19
2019-03-20T05:52:06.172Z,0.06
2019-03-20T05:53:05.607Z,0.19
2019-03-20T05:54:05.880Z,0.31
2019-03-20T05:55:05.687Z,0.50
2019-03-20T05:56:05.539Z,0.62
2019-03-20T05:57:05.511Z,0.75
2019-03-20T05:58:05.050Z,0.88
2019-03-20T05:59:05.278Z,1.06
2019-03-20T06:00:05.770Z,1.50
2019-03-20T06:01:05.958Z,1.88
2019-03-20T06:02:05.371Z,2.19
2019-03-20T06:03:05.279Z,2.44
2019-03-20T06:04:05.763Z,2.56
2019-03-20T06:05:05.281Z,2.62
2019-03-20T06:06:05.527Z,2.69
2019-03-20T06:07:06.258Z,2.69
2019-03-20T06:08:05.223Z,2.69
2019-03-20T06:09:05.450Z,2.75
2019-03-20T06:10:05.635Z,2.88
2019-03-20T06:11:05.600Z,3.00
2019-03-20T06:12:05.782Z,3.12
2019-03-20T06:13:05.851Z,3.31
2019-03-20T06:14:06.105Z,3.44
2019-03-20T06:15:05.204Z,3.50
2019-03-20T06:16:05.445Z,3.62
2019-03-20T06:17:05.843Z,3.75
2019-03-20T06:18:06.002Z,3.88
2019-03-20T06:19:05.424Z,3.94
2019-03-20T06:20:06.083Z,4.06
2019-03-20T06:21:05.525Z,4.12
2019-03-20T06:22:05.520Z,4.25
2019-03-20T06:23:05.193Z,4.38
2019-03-20T06:24:05.786Z,4.56
2019-03-20T06:25:05.996Z,4.69
2019-03-20T06:26:05.155Z,4.75
2019-03-20T06:27:05.580Z,4.88
2019-03-20T06:28:06.023Z,4.94
2019-03-20T06:29:05.446Z,5.06
2019-03-20T06:30:05.708Z,5.19
2019-03-20T06:31:05.848Z,5.25
2019-03-20T06:32:06.176Z,5.31
2019-03-20T06:33:05.224Z,5.50
2019-03-20T06:34:05.372Z,5.62
2019-03-20T06:35:06.095Z,5.75
2019-03-20T06:36:07.003Z,5.94
2019-03-20T06:37:05.290Z,6.06
2019-03-20T06:38:05.459Z,6.19
2019-03-20T06:39:05.450Z,6.31
2019-03-20T06:40:05.613Z,6.44
2019-03-20T06:41:05.680Z,6.56
2019-03-20T06:42:05.933Z,6.69
2019-03-20T06:43:05.122Z,6.81
2019-03-20T06:44:05.538Z,6.94
2019-03-20T06:45:05.133Z,7.12
2019-03-20T06:46:06.357Z,7.25
2019-03-20T06:47:05.768Z,7.50
2019-03-20T06:48:05.776Z,7.62
2019-03-20T06:49:07.811Z,7.69
2019-03-20T06:50:05.447Z,7.81
2019-03-20T06:51:05.684Z,7.94
2019-03-20T06:52:05.201Z,8.06
2019-03-20T06:53:05.687Z,8.19
2019-03-20T06:54:05.232Z,8.31
2019-03-20T06:55:05.212Z,8.38
2019-03-20T06:56:05.448Z,8.56
2019-03-20T06:57:05.209Z,8.69
2019-03-20T06:58:05.408Z,8.81
2019-03-20T06:59:05.461Z,8.88
2019-03-20T07:00:05.512Z,9.00
2019-03-20T07:01:05.212Z,9.19
2019-03-20T07:02:05.306Z,9.25
2019-03-20T07:03:05.366Z,9.38
2019-03-20T07:04:05.970Z,9.50
2019-03-20T07:05:05.121Z,9.62
2019-03-20T07:06:05.317Z,9.75
2019-03-20T07:07:05.352Z,9.88
2019-03-20T07:08:05.758Z,10.00
2019-03-20T07:09:05.613Z,10.06
2019-03-20T07:10:06.755Z,10.19
2019-03-20T07:11:05.122Z,10.31
2019-03-20T07:12:05.863Z,10.44
2019-03-20T07:13:05.291Z,10.56
2019-03-20T07:14:06.024Z,10.62
2019-03-20T07:15:05.034Z,10.81
2019-03-20T07:16:05.770Z,10.94
2019-03-20T07:17:06.166Z,11.00
2019-03-20T07:18:05.384Z,11.12
2019-03-20T07:19:05.362Z,11.19
2019-03-20T07:20:05.843Z,11.38
2019-03-20T07:21:07.435Z,11.44
2019-03-20T07:22:06.113Z,11.50
2019-03-20T07:23:05.220Z,11.56
2019-03-20T07:24:05.382Z,11.62
2019-03-20T07:25:05.442Z,11.69
2019-03-20T07:26:05.684Z,11.75
2019-03-20T07:27:05.283Z,11.81
2019-03-20T07:28:06.023Z,11.81
2019-03-20T07:29:06.085Z,11.81
2019-03-20T07:30:05.446Z,11.88
2019-03-20T07:31:14.562Z,11.94
2019-03-20T07:32:05.046Z,12.06
2019-03-20T07:33:05.688Z,12.12
2019-03-20T07:34:05.210Z,12.19
2019-03-20T07:35:05.456Z,12.25
2019-03-20T07:36:05.132Z,12.31
2019-03-20T07:37:05.694Z,12.38
2019-03-20T07:38:06.098Z,12.44
2019-03-20T07:39:05.539Z,12.50
2019-03-20T07:40:05.818Z,12.56
2019-03-20T07:41:05.841Z,12.56
2019-03-20T07:42:05.829Z,12.62
2019-03-20T07:43:08.917Z,12.62
2019-03-20T07:44:05.870Z,12.69
2019-03-20T07:45:05.525Z,12.75
2019-03-20T07:46:05.677Z,12.75
2019-03-20T07:47:05.197Z,12.81
2019-03-20T07:48:05.704Z,12.81
2019-03-20T07:49:05.834Z,12.88
2019-03-20T07:50:05.451Z,12.94
2019-03-20T07:51:05.073Z,13.00
2019-03-20T07:52:05.370Z,13.06
2019-03-20T07:53:05.930Z,13.06
2019-03-20T07:54:05.849Z,13.12
2019-03-20T07:55:05.196Z,13.12
2019-03-20T07:56:05.847Z,13.19
2019-03-20T07:57:05.352Z,13.19
2019-03-20T07:58:05.545Z,13.19
2019-03-20T07:59:06.000Z,13.25
2019-03-20T08:00:05.434Z,13.25
2019-03-20T08:01:05.605Z,13.31
2019-03-20T08:02:05.855Z,13.31
2019-03-20T08:03:05.828Z,13.31
2019-03-20T08:04:05.936Z,13.31
2019-03-20T08:05:05.989Z,13.25
2019-03-20T08:06:05.432Z,13.25
2019-03-20T08:07:05.926Z,13.25
2019-03-20T08:08:07.422Z,13.25
2019-03-20T08:09:05.542Z,13.25
2019-03-20T08:10:05.615Z,13.19
2019-03-20T08:11:05.699Z,13.19
2019-03-20T08:12:06.115Z,13.19
2019-03-20T08:13:06.086Z,13.12
2019-03-20T08:14:05.674Z,13.12
2019-03-20T08:15:06.005Z,13.12
2019-03-20T08:16:05.638Z,13.12
2019-03-20T08:17:05.528Z,13.12
2019-03-20T08:18:05.788Z,13.12
2019-03-20T08:19:05.833Z,13.12
2019-03-20T08:20:05.924Z,13.12
2019-03-20T08:21:05.304Z,13.12
2019-03-20T08:22:05.356Z,13.06
2019-03-20T08:23:05.692Z,13.00
2019-03-20T08:24:05.700Z,13.06
2019-03-20T08:25:05.797Z,13.06
2019-03-20T08:26:05.409Z,13.00
2019-03-20T08:27:05.758Z,13.12
2019-03-20T08:28:05.848Z,13.19
2019-03-20T08:29:05.996Z,13.12
2019-03-20T08:30:05.127Z,13.06
2019-03-20T08:31:05.189Z,13.06
2019-03-20T08:32:05.927Z,13.00
2019-03-20T08:33:05.360Z,13.00
2019-03-20T08:34:05.616Z,12.94
2019-03-20T08:35:05.052Z,12.94
2019-03-20T08:36:05.125Z,12.88
2019-03-20T08:37:05.370Z,12.81
2019-03-20T08:38:05.545Z,12.81
2019-03-20T08:39:05.437Z,12.75
2019-03-20T08:40:05.689Z,12.75
2019-03-20T08:41:05.918Z,12.88
2019-03-20T08:42:05.602Z,12.88
2019-03-20T08:43:06.074Z,12.88
2019-03-20T08:44:05.363Z,12.94
2019-03-20T08:45:05.504Z,13.12
2019-03-20T08:46:05.209Z,13.19
2019-03-20T08:47:05.287Z,13.12
2019-03-20T08:48:05.463Z,13.44
2019-03-20T08:49:05.452Z,13.50
2019-03-20T08:50:05.607Z,13.56
2019-03-20T08:51:06.016Z,13.62
2019-03-20T08:52:05.367Z,13.69
2019-03-20T08:53:05.519Z,13.75
2019-03-20T08:54:05.762Z,13.75
2019-03-20T08:55:05.195Z,13.81
2019-03-20T08:56:05.536Z,13.81
2019-03-20T08:57:05.275Z,13.81
2019-03-20T08:58:05.782Z,13.81
2019-03-20T08:59:05.116Z,13.81
2019-03-20T09:00:05.367Z,13.88
2019-03-20T09:01:05.946Z,14.12
2019-03-20T09:02:05.273Z,14.25
2019-03-20T09:03:05.688Z,14.38
2019-03-20T09:04:06.013Z,14.38
2019-03-20T09:05:05.102Z,14.31
2019-03-20T09:06:05.294Z,14.19
2019-03-20T09:07:05.840Z,13.94
2019-03-20T09:08:05.457Z,13.88
2019-03-20T09:09:06.019Z,13.88
2019-03-20T09:10:05.366Z,13.75
2019-03-20T09:11:05.450Z,13.62
2019-03-20T09:12:05.789Z,13.44
2019-03-20T09:13:05.371Z,13.50
2019-03-20T09:14:05.544Z,13.50
2019-03-20T09:15:05.675Z,13.56
2019-03-20T09:16:06.103Z,13.56
2019-03-20T09:17:05.288Z,13.69
2019-03-20T09:18:05.777Z,13.81
2019-03-20T09:19:05.695Z,13.88
2019-03-20T09:20:06.094Z,13.88
2019-03-20T09:21:05.604Z,13.75
2019-03-20T09:22:05.770Z,14.31
2019-03-20T09:23:05.296Z,14.62
2019-03-20T09:24:06.298Z,14.50
2019-03-20T09:25:05.841Z,14.50
2019-03-20T09:26:05.534Z,14.31
2019-03-20T09:27:05.121Z,14.19
2019-03-20T09:28:05.195Z,14.06
2019-03-20T09:29:05.449Z,14.00
2019-03-20T09:30:05.604Z,14.00
2019-03-20T09:31:06.086Z,13.94
2019-03-20T09:32:05.682Z,13.88
2019-03-20T09:33:05.225Z,13.81
2019-03-20T09:34:05.597Z,13.75
2019-03-20T09:35:06.976Z,13.69
2019-03-20T09:36:05.589Z,13.62
2019-03-20T09:37:05.932Z,13.38
2019-03-20T09:38:05.046Z,13.19
2019-03-20T09:39:05.364Z,13.00
2019-03-20T09:40:05.935Z,12.81
2019-03-20T09:41:05.368Z,12.62
2019-03-20T09:42:05.742Z,12.50
2019-03-20T09:43:05.450Z,12.44
2019-03-20T09:44:05.919Z,12.31
2019-03-20T09:45:05.129Z,12.25
2019-03-20T09:46:05.217Z,12.12
2019-03-20T09:47:05.455Z,12.06
2019-03-20T09:48:05.125Z,12.00
2019-03-20T09:49:05.296Z,11.94
2019-03-20T09:50:05.443Z,11.88
2019-03-20T09:51:05.686Z,11.81
2019-03-20T09:52:05.114Z,11.75
2019-03-20T09:53:05.370Z,11.75
2019-03-20T09:54:05.445Z,11.69
2019-03-20T09:55:05.536Z,11.69
2019-03-20T09:56:05.680Z,11.62
2019-03-20T09:57:05.855Z,11.56
2019-03-20T09:58:11.345Z,11.56
2019-03-20T09:59:05.369Z,11.56
2019-03-20T10:00:05.767Z,11.50
2019-03-20T10:01:05.764Z,11.50
2019-03-20T10:02:06.008Z,11.50
2019-03-20T10:03:06.082Z,11.50
2019-03-20T10:04:05.591Z,11.50
2019-03-20T10:05:05.603Z,11.44
2019-03-20T10:06:05.856Z,11.44
2019-03-20T10:07:05.447Z,11.44
2019-03-20T10:08:06.014Z,11.44
2019-03-20T10:09:05.270Z,11.69
2019-03-20T10:10:05.446Z,11.88
2019-03-20T10:11:05.283Z,12.06
2019-03-20T10:12:05.844Z,12.12
2019-03-20T10:13:05.535Z,12.06
2019-03-20T10:14:05.607Z,12.00
2019-03-20T10:15:05.853Z,11.94
2019-03-20T10:16:05.462Z,12.06
2019-03-20T10:17:06.001Z,12.00
2019-03-20T10:18:05.703Z,11.94
2019-03-20T10:19:05.756Z,11.88
2019-03-20T10:20:05.386Z,11.81
2019-03-20T10:21:05.362Z,11.81
2019-03-20T10:22:05.612Z,11.75
2019-03-20T10:23:05.610Z,11.75
2019-03-20T10:24:06.025Z,11.69
2019-03-20T10:25:06.099Z,11.69
2019-03-20T10:26:05.324Z,11.69
2019-03-20T10:27:05.452Z,11.69
2019-03-20T10:28:05.459Z,11.62
2019-03-20T10:29:05.441Z,11.62
2019-03-20T10:30:05.525Z,11.62
2019-03-20T10:31:05.281Z,11.62
2019-03-20T10:32:05.545Z,11.56
2019-03-20T10:33:05.595Z,11.56
2019-03-20T10:34:05.364Z,11.62
2019-03-20T10:35:05.368Z,11.56
2019-03-20T10:36:06.023Z,11.56
2019-03-20T10:37:05.899Z,11.56
2019-03-20T10:38:05.523Z,11.62
2019-03-20T10:39:06.866Z,11.62
2019-03-20T10:40:05.456Z,11.62
2019-03-20T10:41:05.602Z,11.56
2019-03-20T10:42:05.125Z,11.56
2019-03-20T10:43:05.210Z,11.56
2019-03-20T10:44:05.762Z,11.56
2019-03-20T10:45:05.234Z,11.56
2019-03-20T10:46:05.541Z,11.56
2019-03-20T10:47:05.594Z,11.62
2019-03-20T10:48:05.783Z,11.62
2019-03-20T10:49:05.226Z,11.62
2019-03-20T10:50:05.636Z,11.62
2019-03-20T10:51:05.597Z,11.56
2019-03-20T10:52:05.209Z,11.56
2019-03-20T10:53:06.090Z,11.62
2019-03-20T10:54:05.030Z,11.62
2019-03-20T10:55:05.442Z,11.69
2019-03-20T10:56:05.710Z,11.75
2019-03-20T10:57:05.861Z,11.69
2019-03-20T10:58:06.012Z,11.75
2019-03-20T10:59:05.120Z,11.75
2019-03-20T11:00:05.851Z,11.75
2019-03-20T11:01:05.223Z,11.75
2019-03-20T11:02:05.361Z,11.75
2019-03-20T11:03:05.690Z,11.81
2019-03-20T11:04:05.212Z,11.75
2019-03-20T11:05:05.848Z,11.75
2019-03-20T11:06:06.119Z,11.75
2019-03-20T11:07:05.209Z,11.75
2019-03-20T11:08:05.347Z,11.75
2019-03-20T11:09:05.603Z,11.75
2019-03-20T11:10:05.767Z,11.81
2019-03-20T11:11:05.861Z,11.81
2019-03-20T11:12:05.136Z,11.81
2019-03-20T11:13:05.604Z,11.81
2019-03-20T11:14:05.107Z,11.88
2019-03-20T11:15:05.365Z,11.88
2019-03-20T11:16:05.614Z,11.88
2019-03-20T11:17:06.002Z,11.94
2019-03-20T11:18:05.224Z,11.94
2019-03-20T11:19:05.361Z,11.94
2019-03-20T11:20:05.530Z,11.94
2019-03-20T11:21:05.184Z,11.94
2019-03-20T11:22:05.609Z,12.00
2019-03-20T11:23:05.760Z,12.00
2019-03-20T11:24:05.926Z,12.00
2019-03-20T11:25:06.001Z,12.00
2019-03-20T11:26:05.106Z,12.00
2019-03-20T11:27:05.376Z,12.00
2019-03-20T11:28:05.926Z,11.94
2019-03-20T11:29:05.210Z,11.94
2019-03-20T11:30:05.462Z,12.00
2019-03-20T11:31:05.682Z,12.00
2019-03-20T11:32:05.136Z,12.00
2019-03-20T11:33:05.607Z,12.06
2019-03-20T11:34:05.838Z,12.06
2019-03-20T11:35:05.439Z,12.06
2019-03-20T11:36:06.026Z,12.06
2019-03-20T11:37:06.005Z,12.12
2019-03-20T11:38:05.789Z,12.12
2019-03-20T11:39:05.998Z,12.12
2019-03-20T11:40:05.443Z,12.19
2019-03-20T11:41:05.297Z,12.19
2019-03-20T11:42:05.692Z,12.25
2019-03-20T11:43:05.847Z,12.19
2019-03-20T11:44:05.995Z,12.25
2019-03-20T11:45:05.291Z,12.25
2019-03-20T11:46:05.363Z,12.31
2019-03-20T11:47:05.221Z,12.75
2019-03-20T11:48:05.443Z,13.19
2019-03-20T11:49:05.600Z,13.50
2019-03-20T11:50:05.944Z,13.50
2019-03-20T11:51:05.998Z,13.56
2019-03-20T11:52:06.345Z,13.69
2019-03-20T11:53:06.098Z,13.56
2019-03-20T11:54:05.208Z,13.50
2019-03-20T11:55:05.853Z,13.38
2019-03-20T11:56:06.108Z,13.56
2019-03-20T11:57:05.343Z,13.62
2019-03-20T11:58:05.691Z,13.69
2019-03-20T11:59:05.026Z,13.62
2019-03-20T12:00:05.690Z,13.56
2019-03-20T12:01:05.036Z,13.50
2019-03-20T12:02:05.783Z,13.38
2019-03-20T12:03:05.918Z,13.31
2019-03-20T12:04:05.996Z,13.25
2019-03-20T12:05:05.362Z,13.19
2019-03-20T12:06:05.142Z,13.06
2019-03-20T12:07:05.385Z,13.06
2019-03-20T12:08:05.291Z,13.06
2019-03-20T12:09:05.853Z,13.00
2019-03-20T12:10:05.130Z,13.00
2019-03-20T12:11:05.761Z,13.00
2019-03-20T12:12:05.929Z,13.00
2019-03-20T12:13:05.996Z,13.00
2019-03-20T12:14:05.216Z,12.94
2019-03-20T12:15:05.769Z,12.94
2019-03-20T12:16:05.221Z,12.94
2019-03-20T12:17:05.376Z,13.12
2019-03-20T12:18:05.838Z,13.19
2019-03-20T12:19:05.927Z,13.19
2019-03-20T12:20:05.134Z,13.12
2019-03-20T12:21:05.597Z,13.06
2019-03-20T12:22:05.898Z,13.00
2019-03-20T12:23:05.382Z,13.00
2019-03-20T12:24:05.372Z,13.00
2019-03-20T12:25:06.167Z,12.94
2019-03-20T12:26:05.213Z,12.94
2019-03-20T12:27:14.501Z,12.94
2019-03-20T12:28:05.931Z,12.88
2019-03-20T12:29:05.374Z,12.88
2019-03-20T12:30:05.453Z,12.88
2019-03-20T12:31:06.676Z,12.94
2019-03-20T12:32:05.436Z,12.94
2019-03-20T12:33:05.944Z,12.88
2019-03-20T12:34:06.017Z,13.12
2019-03-20T12:35:05.397Z,13.31
2019-03-20T12:36:05.671Z,13.19
2019-03-20T12:37:05.951Z,13.12
2019-03-20T12:38:14.049Z,13.31
2019-03-20T12:39:05.935Z,13.31
2019-03-20T12:40:06.078Z,13.19
2019-03-20T12:41:05.136Z,13.12
2019-03-20T12:42:05.369Z,13.00
2019-03-20T12:43:06.056Z,12.94
2019-03-20T12:44:05.376Z,12.94
2019-03-20T12:45:05.270Z,12.94
2019-03-20T12:46:05.589Z,12.94
2019-03-20T12:47:05.946Z,12.88
2019-03-20T12:48:06.108Z,12.88
2019-03-20T12:49:05.545Z,12.88
2019-03-20T12:50:05.121Z,12.88
2019-03-20T12:51:05.377Z,12.88
2019-03-20T12:52:05.527Z,12.88
2019-03-20T12:53:05.532Z,12.88
2019-03-20T12:54:05.703Z,12.81
2019-03-20T12:55:05.765Z,12.81
2019-03-20T12:56:05.996Z,12.81
2019-03-20T12:57:05.601Z,12.81
2019-03-20T12:58:05.611Z,12.81
2019-03-20T12:59:06.015Z,12.81
2019-03-20T13:00:05.539Z,12.81
2019-03-20T13:01:05.775Z,12.81
2019-03-20T13:02:08.136Z,12.75
2019-03-20T13:03:05.794Z,12.75
2019-03-20T13:04:05.764Z,12.75
2019-03-20T13:05:05.291Z,12.75